Time;durP1;ratioP1;P1;durP2;ratioP2;P2;SDS_P1;SDS_P2;PMS_P1;PMS_P2;Temp;Humidity;BMP_temperature;BMP_pressure;BME280_temperature;BME280_humidity;BME280_pressure;Samples;Min_cycle;Max_cycle;Signal;HPM_P1;HPM_P2
2023/03/09 00:02:22;;;;;;;15.45;8.80;;;2.20;99.90;;;;;;5071005;28;20028;-67
2023/03/09 00:04:47;;;;;;;15.98;9.82;;;2.30;99.90;;;;;;5071562;28;20470;-68
2023/03/09 00:07:13;;;;;;;15.48;9.68;;;2.30;99.90;;;;;;5101667;28;20123;-68
2023/03/09 00:09:39;;;;;;;16.98;10.00;;;2.30;99.90;;;;;;5123854;28;20073;-67
2023/03/09 00:12:05;;;;;;;14.95;9.85;;;2.30;99.90;;;;;;5089841;28;20055;-67
2023/03/09 00:14:30;;;;;;;16.77;9.75;;;2.30;99.90;;;;;;5094565;28;20040;-67
2023/03/09 00:16:56;;;;;;;17.95;9.85;;;2.30;99.90;;;;;;5111611;28;20044;-67
2023/03/09 00:19:26;;;;;;;16.85;8.73;;;2.40;99.90;;;;;;5127690;27;20050;-67
2023/03/09 00:21:54;;;;;;;16.52;10.20;;;2.40;99.90;;;;;;5094155;28;20051;-68
2023/03/09 00:24:28;;;;;;;17.58;10.55;;;2.40;99.90;;;;;;5095578;28;20047;-67
2023/03/09 00:26:56;;;;;;;18.52;10.23;;;2.30;99.90;;;;;;5078983;28;20044;-67
2023/03/09 00:29:23;;;;;;;19.13;10.15;;;2.30;99.90;;;;;;5094692;28;20035;-67
2023/03/09 00:31:49;;;;;;;19.38;10.90;;;2.20;99.90;;;;;;5078545;28;20040;-68
2023/03/09 00:34:16;;;;;;;16.23;9.88;;;2.20;99.90;;;;;;5095657;28;20040;-67
2023/03/09 00:36:41;;;;;;;19.50;10.80;;;2.30;99.90;;;;;;5078481;28;20044;-67
2023/03/09 00:39:07;;;;;;;19.27;10.32;;;2.30;99.90;;;;;;5112517;28;20047;-68
2023/03/09 00:41:33;;;;;;;18.35;11.15;;;2.20;99.90;;;;;;5076209;28;20085;-67
2023/03/09 00:44:00;;;;;;;19.17;10.90;;;2.20;99.90;;;;;;5093910;28;20510;-67
2023/03/09 00:46:27;;;;;;;18.50;11.02;;;2.20;99.90;;;;;;5094572;28;20066;-67
2023/03/09 00:48:53;;;;;;;18.85;10.32;;;2.20;99.90;;;;;;5095100;28;20484;-67
2023/03/09 00:51:19;;;;;;;17.52;10.20;;;2.10;99.90;;;;;;5093713;28;20043;-68
2023/03/09 00:53:45;;;;;;;17.35;9.90;;;2.30;99.90;;;;;;5094144;28;20044;-67
2023/03/09 00:56:19;;;;;;;17.75;10.45;;;2.20;99.90;;;;;;5094769;28;20052;-67
2023/03/09 00:58:45;;;;;;;16.17;9.30;;;2.20;99.90;;;;;;5078023;28;20036;-67
2023/03/09 01:01:14;;;;;;;15.73;8.90;;;2.20;99.90;;;;;;5094200;28;20032;-67
2023/03/09 01:03:40;;;;;;;18.15;8.82;;;2.20;99.90;;;;;;5093044;28;20047;-68
2023/03/09 01:06:07;;;;;;;15.90;9.00;;;2.20;99.90;;;;;;5077350;28;20037;-67
2023/03/09 01:08:33;;;;;;;15.00;8.85;;;2.20;99.90;;;;;;5076896;28;20040;-67
2023/03/09 01:10:59;;;;;;;13.35;7.57;;;2.20;99.90;;;;;;5094038;28;20040;-67
2023/03/09 01:13:24;;;;;;;15.35;9.13;;;2.20;99.90;;;;;;5094858;27;20044;-67
2023/03/09 01:15:50;;;;;;;16.90;8.98;;;2.20;99.90;;;;;;5074379;28;20115;-67
2023/03/09 01:18:16;;;;;;;16.13;8.85;;;2.20;99.90;;;;;;5074344;28;20076;-68
2023/03/09 01:20:41;;;;;;;13.98;7.88;;;2.20;99.90;;;;;;5111013;28;20032;-67
2023/03/09 01:23:07;;;;;;;14.90;8.38;;;2.20;99.90;;;;;;5110396;27;20036;-67
2023/03/09 01:25:33;;;;;;;13.13;7.57;;;2.20;99.90;;;;;;5094488;28;20036;-67
2023/03/09 01:27:58;;;;;;;13.80;7.80;;;2.30;99.90;;;;;;5111651;28;20071;-67
2023/03/09 01:30:24;;;;;;;15.50;8.25;;;2.20;99.90;;;;;;5126581;27;20063;-68
2023/03/09 01:32:50;;;;;;;14.60;7.85;;;2.10;99.90;;;;;;5083826;28;20035;-68
2023/03/09 01:35:15;;;;;;;14.13;7.45;;;2.10;99.90;;;;;;5107753;28;20128;-67
2023/03/09 01:37:41;;;;;;;13.68;7.55;;;2.00;99.90;;;;;;5090813;28;20033;-67
2023/03/09 01:40:07;;;;;;;13.77;7.78;;;2.10;99.90;;;;;;5097494;27;20040;-67
2023/03/09 01:42:34;;;;;;;14.20;8.45;;;2.00;99.90;;;;;;5067006;28;20040;-67
2023/03/09 01:45:28;;;;;;;16.40;8.70;;;2.00;99.90;;;;;;5090734;28;20119;-68
2023/03/09 01:47:57;;;;;;;14.85;7.80;;;1.90;99.90;;;;;;5057226;28;20365;-67
2023/03/09 01:50:30;;;;;;;14.30;7.47;;;1.90;99.90;;;;;;5084887;28;20079;-67
2023/03/09 01:53:00;;;;;;;14.38;8.07;;;2.00;99.90;;;;;;5093268;28;20068;-67
2023/03/09 01:55:31;;;;;;;14.82;8.23;;;1.90;99.90;;;;;;5093827;28;20492;-67
2023/03/09 01:58:09;;;;;;;16.48;8.73;;;2.00;99.90;;;;;;5110890;28;20054;-68
2023/03/09 02:00:35;;;;;;;16.52;8.30;;;2.00;99.90;;;;;;5092083;28;20074;-67
2023/03/09 02:03:07;;;;;;;16.63;9.02;;;1.90;99.90;;;;;;5076106;28;20036;-67
2023/03/09 02:05:45;;;;;;;14.85;8.55;;;1.90;99.90;;;;;;5100201;28;20121;-67
2023/03/09 02:08:12;;;;;;;15.55;8.93;;;1.90;99.90;;;;;;5079280;28;20044;-67
2023/03/09 02:10:44;;;;;;;15.43;8.52;;;1.90;99.90;;;;;;5092610;28;20063;-68
2023/03/09 02:13:14;;;;;;;16.95;8.95;;;1.90;99.90;;;;;;5093061;28;20044;-67
2023/03/09 02:15:41;;;;;;;14.18;8.02;;;1.80;99.90;;;;;;5092233;28;20115;-67
2023/03/09 02:18:08;;;;;;;14.15;7.85;;;1.80;99.90;;;;;;5093035;28;20056;-67
2023/03/09 02:21:13;;;;;;;13.07;7.97;;;1.80;99.90;;;;;;5092923;28;20036;-67
2023/03/09 02:23:43;;;;;;;15.02;8.68;;;1.70;99.90;;;;;;5075332;28;20032;-67
2023/03/09 02:26:37;;;;;;;14.50;8.02;;;1.70;99.90;;;;;;5093327;28;20119;-67
2023/03/09 02:29:03;;;;;;;13.25;7.95;;;1.60;99.90;;;;;;5085341;28;20091;-67
2023/03/09 02:31:28;;;;;;;14.38;7.90;;;1.60;99.90;;;;;;5091741;28;20109;-67
2023/03/09 02:33:54;;;;;;;13.25;7.65;;;1.70;99.90;;;;;;5075229;28;20525;-67
2023/03/09 02:36:21;;;;;;;14.23;7.72;;;1.70;99.90;;;;;;5072177;28;20073;-67
2023/03/09 02:38:47;;;;;;;13.38;7.68;;;1.70;99.90;;;;;;5056148;28;20045;-67
2023/03/09 02:41:13;;;;;;;15.30;8.02;;;1.70;99.90;;;;;;5106285;27;20040;-67
2023/03/09 02:43:54;;;;;;;14.90;8.27;;;1.60;99.90;;;;;;5064554;28;20032;-67
2023/03/09 02:46:20;;;;;;;14.32;7.85;;;1.60;99.90;;;;;;5055901;28;20044;-67
2023/03/09 02:48:45;;;;;;;12.90;8.15;;;1.60;99.90;;;;;;5125792;27;20040;-67
2023/03/09 02:51:11;;;;;;;13.05;7.90;;;1.70;99.90;;;;;;5109679;28;20488;-67
2023/03/09 02:53:37;;;;;;;13.80;7.72;;;1.70;99.90;;;;;;5109135;28;20063;-67
2023/03/09 02:56:03;;;;;;;14.05;7.97;;;1.70;99.90;;;;;;5126616;27;20079;-67
2023/03/09 02:58:28;;;;;;;13.50;7.95;;;1.70;99.90;;;;;;5109676;28;20040;-67
2023/03/09 03:00:54;;;;;;;14.13;7.85;;;1.70;99.90;;;;;;5107771;28;20040;-67
2023/03/09 03:03:20;;;;;;;14.27;8.10;;;1.70;99.90;;;;;;5092138;28;20457;-67
2023/03/09 03:05:47;;;;;;;15.18;8.07;;;1.70;99.90;;;;;;5109506;28;20047;-67
2023/03/09 03:08:13;;;;;;;14.98;8.23;;;1.70;99.90;;;;;;5092616;28;20040;-67
2023/03/09 03:10:38;;;;;;;16.73;9.20;;;1.70;99.90;;;;;;5108898;28;20108;-67
2023/03/09 03:13:04;;;;;;;16.10;9.20;;;1.60;99.90;;;;;;5112503;27;20044;-67
2023/03/09 03:15:30;;;;;;;15.60;8.35;;;1.70;99.90;;;;;;5106063;28;20471;-67
2023/03/09 03:17:55;;;;;;;15.27;9.02;;;1.70;99.90;;;;;;5105963;28;20041;-67
2023/03/09 03:20:21;;;;;;;16.13;9.38;;;1.70;99.90;;;;;;5114270;27;20039;-67
2023/03/09 03:22:47;;;;;;;16.80;9.15;;;1.70;99.90;;;;;;5074748;28;20081;-68
2023/03/09 03:25:13;;;;;;;15.23;8.75;;;1.70;99.90;;;;;;5126408;27;20067;-67
2023/03/09 03:27:38;;;;;;;14.77;8.43;;;1.70;99.90;;;;;;5109116;28;20040;-67
2023/03/09 03:30:05;;;;;;;16.45;9.82;;;1.80;99.90;;;;;;5102441;28;20408;-67
2023/03/09 03:32:30;;;;;;;17.17;9.45;;;1.70;99.90;;;;;;5090209;28;20496;-67
2023/03/09 03:34:56;;;;;;;17.75;10.75;;;1.70;99.90;;;;;;5083132;28;20043;-67
2023/03/09 03:37:22;;;;;;;17.33;9.07;;;1.70;99.90;;;;;;5105853;28;20554;-67
2023/03/09 03:39:47;;;;;;;15.32;9.43;;;1.70;99.90;;;;;;5074352;28;20028;-67
2023/03/09 03:42:13;;;;;;;17.60;10.00;;;1.70;99.90;;;;;;5125402;27;20054;-67
2023/03/09 03:44:39;;;;;;;17.05;10.07;;;1.60;99.90;;;;;;5092257;28;20081;-67
2023/03/09 03:47:04;;;;;;;18.73;10.30;;;1.60;99.90;;;;;;5075139;28;20046;-67
2023/03/09 03:49:30;;;;;;;17.90;9.63;;;1.60;99.90;;;;;;5089585;28;20044;-67
2023/03/09 03:51:56;;;;;;;17.67;10.35;;;1.60;99.90;;;;;;5088386;28;20054;-67
2023/03/09 03:54:21;;;;;;;17.25;9.77;;;1.70;99.90;;;;;;5088431;28;20039;-67
2023/03/09 03:56:47;;;;;;;18.75;10.40;;;1.60;99.90;;;;;;5073624;28;20861;-67
2023/03/09 03:59:13;;;;;;;19.20;10.45;;;1.60;99.90;;;;;;5091988;28;20097;-67
2023/03/09 04:01:38;;;;;;;17.75;10.65;;;1.70;99.90;;;;;;5090996;28;20097;-67
2023/03/09 04:04:04;;;;;;;19.23;11.02;;;1.70;99.90;;;;;;5065160;28;20047;-67
2023/03/09 04:06:31;;;;;;;17.10;10.30;;;1.60;99.90;;;;;;5091881;28;20047;-67
2023/03/09 04:08:58;;;;;;;17.50;10.35;;;1.60;99.90;;;;;;5075375;28;20377;-67
2023/03/09 04:11:23;;;;;;;18.13;10.05;;;1.60;99.90;;;;;;5091049;28;20085;-67
2023/03/09 04:13:50;;;;;;;19.10;10.93;;;1.60;99.90;;;;;;5059562;28;20552;-67
2023/03/09 04:16:16;;;;;;;19.55;11.10;;;1.60;99.90;;;;;;5054712;28;20040;-67
2023/03/09 04:18:42;;;;;;;19.48;10.82;;;1.60;99.90;;;;;;5088554;28;20388;-67
2023/03/09 04:21:07;;;;;;;18.13;10.95;;;1.60;99.90;;;;;;5103122;28;20044;-67
2023/03/09 04:23:33;;;;;;;18.95;10.35;;;1.60;99.90;;;;;;5061836;28;20036;-67
2023/03/09 04:26:01;;;;;;;18.88;11.32;;;1.70;99.90;;;;;;5071568;28;20404;-67
2023/03/09 04:28:27;;;;;;;18.58;10.18;;;1.70;99.90;;;;;;5054810;28;20045;-67
2023/03/09 04:30:53;;;;;;;17.45;10.00;;;1.70;99.90;;;;;;5067475;28;20446;-68
2023/03/09 04:33:18;;;;;;;19.48;11.45;;;1.60;99.90;;;;;;5090347;28;20043;-67
2023/03/09 04:35:44;;;;;;;20.17;10.95;;;1.70;99.90;;;;;;5074628;28;20051;-67
2023/03/09 04:38:10;;;;;;;18.63;11.27;;;1.70;99.90;;;;;;5074992;28;20032;-67
2023/03/09 04:40:36;;;;;;;19.35;11.65;;;1.70;99.90;;;;;;5091277;28;20067;-67
2023/03/09 04:43:02;;;;;;;19.80;10.38;;;1.70;99.90;;;;;;5124708;28;20036;-67
2023/03/09 04:45:28;;;;;;;19.13;11.70;;;1.70;99.90;;;;;;5125770;28;20040;-67
2023/03/09 04:47:54;;;;;;;21.48;12.65;;;1.70;99.90;;;;;;5091414;28;20036;-67
2023/03/09 04:50:20;;;;;;;19.90;12.00;;;1.60;99.90;;;;;;5090822;28;20105;-67
2023/03/09 04:52:45;;;;;;;21.45;12.18;;;1.60;99.90;;;;;;5091004;28;20399;-67
2023/03/09 04:55:11;;;;;;;19.52;11.02;;;1.60;99.90;;;;;;5091367;28;20040;-67
2023/03/09 04:57:36;;;;;;;20.48;12.15;;;1.60;99.90;;;;;;5091385;28;20060;-67
2023/03/09 05:00:06;;;;;;;20.95;11.93;;;1.70;99.90;;;;;;5093277;28;20040;-67
2023/03/09 05:02:32;;;;;;;22.60;12.43;;;1.60;99.90;;;;;;5077520;28;20437;-67
2023/03/09 05:04:57;;;;;;;22.30;12.45;;;1.70;99.90;;;;;;5077995;28;20032;-67
2023/03/09 05:07:23;;;;;;;20.83;11.68;;;1.60;99.90;;;;;;5077959;28;20036;-68
2023/03/09 05:09:49;;;;;;;20.85;12.13;;;1.60;99.90;;;;;;5094074;28;20060;-68
2023/03/09 05:12:15;;;;;;;20.10;11.70;;;1.60;99.90;;;;;;5110662;28;20028;-67
2023/03/09 05:14:41;;;;;;;21.88;12.73;;;1.70;99.90;;;;;;5094638;28;20040;-67
2023/03/09 05:17:06;;;;;;;22.15;12.80;;;1.70;99.90;;;;;;5077769;28;20039;-68
2023/03/09 05:19:33;;;;;;;20.63;12.32;;;1.70;99.90;;;;;;5095121;28;20036;-67
2023/03/09 05:21:59;;;;;;;20.30;11.07;;;1.70;99.90;;;;;;5093754;28;20062;-67
2023/03/09 05:24:25;;;;;;;19.77;10.45;;;1.60;99.90;;;;;;5077949;28;20145;-67
2023/03/09 05:26:50;;;;;;;20.27;10.93;;;1.70;99.90;;;;;;5077648;28;20127;-67
2023/03/09 05:29:16;;;;;;;20.45;11.43;;;1.70;99.90;;;;;;5077472;28;20040;-67
2023/03/09 05:31:41;;;;;;;16.85;9.52;;;1.70;99.90;;;;;;5092294;28;20089;-67
2023/03/09 05:34:07;;;;;;;20.10;11.75;;;1.60;99.90;;;;;;5128056;27;20044;-67
2023/03/09 05:36:33;;;;;;;16.90;9.35;;;1.60;99.90;;;;;;5094301;28;20047;-67
2023/03/09 05:38:58;;;;;;;18.45;10.02;;;1.60;99.90;;;;;;5111231;28;20036;-68
2023/03/09 05:41:24;;;;;;;18.52;10.45;;;1.50;99.90;;;;;;5092171;28;20115;-68
2023/03/09 05:43:50;;;;;;;16.52;9.15;;;1.50;99.90;;;;;;5110748;27;20047;-67
2023/03/09 05:46:16;;;;;;;16.40;8.82;;;1.60;99.90;;;;;;5094115;28;20098;-68
2023/03/09 05:48:43;;;;;;;18.73;10.02;;;1.70;99.90;;;;;;5094086;28;20044;-67
2023/03/09 05:51:11;;;;;;;16.88;9.43;;;1.70;99.90;;;;;;5076443;28;20043;-68
2023/03/09 05:53:36;;;;;;;17.88;10.10;;;1.60;99.90;;;;;;5066196;28;20044;-67
2023/03/09 05:56:03;;;;;;;19.60;10.18;;;1.60;99.90;;;;;;5056764;28;20089;-68
2023/03/09 05:58:29;;;;;;;17.02;9.35;;;1.60;99.90;;;;;;5073760;28;20365;-67
2023/03/09 06:00:56;;;;;;;18.77;10.10;;;1.60;99.90;;;;;;5063044;28;20043;-68
2023/03/09 06:03:22;;;;;;;17.00;9.50;;;1.60;99.90;;;;;;5075472;28;20040;-67
2023/03/09 06:06:02;;;;;;;16.15;9.10;;;1.70;99.90;;;;;;5077530;28;20542;-68
2023/03/09 06:08:28;;;;;;;17.05;9.48;;;1.70;99.90;;;;;;5110866;28;20039;-67
2023/03/09 06:10:56;;;;;;;18.17;10.05;;;1.70;99.90;;;;;;5089989;28;20523;-67
2023/03/09 06:13:22;;;;;;;18.30;9.18;;;1.60;99.90;;;;;;5092845;28;20044;-67
2023/03/09 06:15:47;;;;;;;16.77;9.23;;;1.70;99.90;;;;;;5121691;27;20040;-68
2023/03/09 06:18:13;;;;;;;16.92;9.57;;;1.60;99.90;;;;;;5082582;28;20492;-67
2023/03/09 06:20:38;;;;;;;18.02;9.65;;;1.70;99.90;;;;;;5076838;28;20036;-67
2023/03/09 06:23:04;;;;;;;15.75;8.57;;;1.60;99.90;;;;;;5093278;28;20047;-67
2023/03/09 06:25:30;;;;;;;16.27;9.88;;;1.70;99.90;;;;;;5093217;28;20091;-67
2023/03/09 06:27:55;;;;;;;15.98;9.70;;;1.60;99.90;;;;;;5093271;28;20085;-67
2023/03/09 06:30:21;;;;;;;16.30;9.82;;;1.80;99.90;;;;;;5110279;28;20381;-67
2023/03/09 06:32:47;;;;;;;20.00;10.63;;;1.70;99.90;;;;;;5117235;27;20044;-68
2023/03/09 06:35:13;;;;;;;19.33;10.40;;;1.70;99.90;;;;;;5072514;28;20041;-67
2023/03/09 06:37:38;;;;;;;16.23;9.73;;;1.70;99.90;;;;;;5093124;28;20092;-67
2023/03/09 06:40:05;;;;;;;18.08;10.48;;;1.80;99.90;;;;;;5127059;27;20040;-67
2023/03/09 06:42:30;;;;;;;19.50;9.93;;;1.80;99.90;;;;;;5074490;28;20357;-67
2023/03/09 06:44:56;;;;;;;18.40;10.23;;;1.80;99.90;;;;;;5076063;28;20101;-67
2023/03/09 06:47:21;;;;;;;18.30;10.75;;;1.80;99.90;;;;;;5073423;28;20452;-67
2023/03/09 06:49:47;;;;;;;20.33;10.93;;;1.80;99.90;;;;;;5072640;28;20033;-67
2023/03/09 06:52:12;;;;;;;19.13;11.35;;;1.70;99.90;;;;;;5092808;27;20039;-67
2023/03/09 06:54:38;;;;;;;22.63;12.48;;;1.70;99.90;;;;;;5055889;28;20040;-67
2023/03/09 06:57:04;;;;;;;20.27;11.23;;;1.70;99.90;;;;;;5066616;28;20087;-67
2023/03/09 06:59:30;;;;;;;20.65;10.20;;;1.70;99.90;;;;;;5075820;28;20525;-67
2023/03/09 07:01:55;;;;;;;19.65;11.95;;;1.70;99.90;;;;;;5091949;28;20036;-67
2023/03/09 07:04:21;;;;;;;18.88;10.88;;;1.70;99.90;;;;;;5075694;28;20043;-67
2023/03/09 07:06:47;;;;;;;20.17;11.68;;;1.80;99.90;;;;;;5091807;28;20046;-67
2023/03/09 07:09:12;;;;;;;22.42;12.32;;;1.70;99.90;;;;;;5090380;28;20042;-67
2023/03/09 07:11:38;;;;;;;20.33;10.77;;;1.70;99.90;;;;;;5092414;28;20036;-67
2023/03/09 07:14:04;;;;;;;21.23;12.32;;;1.70;99.90;;;;;;5081602;28;20080;-67
2023/03/09 07:16:30;;;;;;;16.58;10.43;;;1.70;99.90;;;;;;5106035;28;20408;-67
2023/03/09 07:18:56;;;;;;;19.77;11.15;;;1.80;99.90;;;;;;5082114;28;20071;-67
2023/03/09 07:21:22;;;;;;;20.23;11.63;;;1.80;99.90;;;;;;5091201;28;20059;-67
2023/03/09 07:23:47;;;;;;;20.00;11.23;;;1.80;99.90;;;;;;5106262;28;20495;-67
2023/03/09 07:26:13;;;;;;;18.35;11.18;;;1.80;99.90;;;;;;5107676;27;20132;-67
2023/03/09 07:28:38;;;;;;;20.20;10.98;;;1.80;99.90;;;;;;5090707;28;20051;-68
2023/03/09 07:31:09;;;;;;;18.20;10.98;;;1.80;99.90;;;;;;5109132;28;20040;-68
2023/03/09 07:33:35;;;;;;;18.35;10.77;;;1.90;99.90;;;;;;5108982;28;20044;-67
2023/03/09 07:36:07;;;;;;;16.80;10.38;;;1.90;99.90;;;;;;5075518;28;20039;-67
2023/03/09 07:38:33;;;;;;;19.77;10.88;;;2.00;99.90;;;;;;5080705;28;20094;-67
2023/03/09 07:41:00;;;;;;;19.23;11.63;;;1.90;99.90;;;;;;5088577;28;20036;-67
2023/03/09 07:43:26;;;;;;;17.50;10.27;;;1.90;99.90;;;;;;5073805;28;20032;-67
2023/03/09 07:45:51;;;;;;;18.52;11.20;;;1.90;99.90;;;;;;5110361;28;20032;-67
2023/03/09 07:48:17;;;;;;;17.52;10.75;;;1.90;99.90;;;;;;5074064;28;20035;-67
2023/03/09 07:50:44;;;;;;;20.20;11.68;;;2.00;99.90;;;;;;5088978;28;20101;-67
2023/03/09 07:53:09;;;;;;;19.67;11.75;;;2.00;99.90;;;;;;5073327;28;20047;-67
2023/03/09 07:55:36;;;;;;;21.23;11.00;;;2.00;99.90;;;;;;5077033;28;20044;-67
2023/03/09 07:58:02;;;;;;;17.33;10.40;;;2.10;99.90;;;;;;5085215;28;20044;-67
2023/03/09 08:00:28;;;;;;;15.80;10.13;;;2.20;99.90;;;;;;5069580;28;20040;-67
2023/03/09 08:02:56;;;;;;;17.05;10.75;;;2.10;99.90;;;;;;5089531;28;20023;-67
2023/03/09 08:05:22;;;;;;;17.77;10.98;;;2.20;99.90;;;;;;5085259;28;20039;-67
2023/03/09 08:07:49;;;;;;;17.67;9.30;;;2.10;99.90;;;;;;5102287;28;20052;-67
2023/03/09 08:10:16;;;;;;;17.52;10.45;;;2.20;99.90;;;;;;5088649;28;20393;-67
2023/03/09 08:12:43;;;;;;;17.92;10.48;;;2.30;99.90;;;;;;5085535;28;20063;-67
2023/03/09 08:15:09;;;;;;;17.65;10.02;;;2.20;99.90;;;;;;5070298;28;20046;-67
2023/03/09 08:17:35;;;;;;;17.55;10.95;;;2.20;99.90;;;;;;5073513;28;20040;-67
2023/03/09 08:20:00;;;;;;;18.98;10.00;;;2.30;99.90;;;;;;5083281;28;20028;-67
2023/03/09 08:22:26;;;;;;;18.23;9.70;;;2.30;99.90;;;;;;5071051;28;20096;-67
2023/03/09 08:24:52;;;;;;;17.85;8.43;;;2.30;99.90;;;;;;5087788;28;20028;-67
2023/03/09 08:27:18;;;;;;;17.33;11.15;;;2.50;99.90;;;;;;5108253;28;20040;-67
2023/03/09 08:29:43;;;;;;;17.02;10.65;;;2.40;99.90;;;;;;5080280;28;20047;-67
2023/03/09 08:32:09;;;;;;;16.83;10.32;;;2.40;99.90;;;;;;5090212;28;20036;-67
2023/03/09 08:34:36;;;;;;;16.65;9.68;;;2.40;99.90;;;;;;5093163;28;20032;-67
2023/03/09 08:37:01;;;;;;;17.67;10.55;;;2.40;99.90;;;;;;5095830;28;20082;-67
2023/03/09 08:39:27;;;;;;;16.80;10.27;;;2.40;99.90;;;;;;5084808;28;20564;-67
2023/03/09 08:41:52;;;;;;;17.02;10.50;;;2.50;99.90;;;;;;5099215;28;20048;-67
2023/03/09 08:44:18;;;;;;;19.00;10.70;;;2.50;99.90;;;;;;5088296;28;20075;-68
2023/03/09 08:46:44;;;;;;;18.17;10.63;;;2.50;99.90;;;;;;5075966;28;20032;-67
2023/03/09 08:49:09;;;;;;;19.42;11.27;;;2.50;99.90;;;;;;5091741;28;20036;-67
2023/03/09 08:51:35;;;;;;;16.38;9.65;;;2.50;99.90;;;;;;5092962;28;20052;-69
2023/03/09 08:54:00;;;;;;;16.83;10.40;;;2.50;99.90;;;;;;5087747;28;20048;-68
2023/03/09 08:56:26;;;;;;;17.25;11.43;;;2.40;99.90;;;;;;5076312;28;20054;-68
2023/03/09 08:58:52;;;;;;;16.60;10.07;;;2.40;99.90;;;;;;5085248;28;20078;-68
2023/03/09 09:01:17;;;;;;;17.65;11.07;;;2.40;99.90;;;;;;5094308;28;20063;-68
2023/03/09 09:03:43;;;;;;;15.40;9.82;;;2.40;99.90;;;;;;5087648;28;20040;-68
2023/03/09 09:06:13;;;;;;;17.15;10.65;;;2.40;99.90;;;;;;5065842;28;20045;-68
2023/03/09 09:08:39;;;;;;;15.35;9.57;;;2.50;99.90;;;;;;5092678;28;20527;-68
2023/03/09 09:11:07;;;;;;;17.27;10.48;;;2.50;99.90;;;;;;5091396;28;20051;-68
2023/03/09 09:13:33;;;;;;;16.35;9.35;;;2.50;99.90;;;;;;5090874;28;20043;-68
2023/03/09 09:15:59;;;;;;;17.02;9.80;;;2.50;99.90;;;;;;5125733;27;20036;-68
2023/03/09 09:18:26;;;;;;;15.75;10.23;;;2.50;99.90;;;;;;5061897;28;20067;-68
2023/03/09 09:20:52;;;;;;;18.10;11.05;;;2.60;99.90;;;;;;5073775;28;20044;-68
2023/03/09 09:23:17;;;;;;;16.95;10.35;;;2.60;99.90;;;;;;5127916;27;20035;-68
2023/03/09 09:25:43;;;;;;;16.00;9.85;;;2.70;99.90;;;;;;5090648;28;20508;-68
2023/03/09 09:28:09;;;;;;;16.98;10.27;;;2.70;99.90;;;;;;5123802;27;20032;-68
2023/03/09 09:30:36;;;;;;;15.80;9.40;;;2.90;99.90;;;;;;5081102;28;20032;-68
2023/03/09 09:33:04;;;;;;;15.85;10.05;;;2.90;99.90;;;;;;5092172;28;20036;-68
2023/03/09 09:35:30;;;;;;;17.80;11.32;;;2.90;99.90;;;;;;5075295;28;20553;-68
2023/03/09 09:37:57;;;;;;;16.75;10.48;;;2.80;99.90;;;;;;5085770;28;20036;-68
2023/03/09 09:40:23;;;;;;;17.17;10.07;;;2.80;99.90;;;;;;5097504;27;20511;-68
2023/03/09 09:42:50;;;;;;;18.30;10.52;;;2.80;99.90;;;;;;5076388;28;20078;-68
2023/03/09 09:45:29;;;;;;;16.60;10.45;;;2.70;99.90;;;;;;5087822;28;20459;-68
2023/03/09 09:47:56;;;;;;;15.05;9.15;;;2.80;99.90;;;;;;5118345;27;20528;-68
2023/03/09 09:50:32;;;;;;;14.82;9.13;;;2.80;99.90;;;;;;5073555;28;20419;-68
2023/03/09 09:53:13;;;;;;;12.60;7.40;;;2.90;99.90;;;;;;5073162;28;20036;-68
2023/03/09 09:55:42;;;;;;;15.45;9.30;;;3.10;99.90;;;;;;5086264;28;20105;-69
2023/03/09 09:58:17;;;;;;;13.98;8.82;;;3.10;99.90;;;;;;5066845;28;20050;-68
2023/03/09 10:00:47;;;;;;;15.75;9.18;;;3.10;99.90;;;;;;5076069;28;20067;-68
2023/03/09 10:03:25;;;;;;;15.48;9.05;;;3.20;99.90;;;;;;5097928;28;20024;-68
2023/03/09 10:06:03;;;;;;;13.95;8.18;;;3.10;99.90;;;;;;5090253;28;20491;-68
2023/03/09 10:08:40;;;;;;;13.60;8.27;;;3.20;99.90;;;;;;5073228;28;20032;-68
2023/03/09 10:11:26;;;;;;;16.75;9.10;;;3.30;99.90;;;;;;5124025;27;20043;-68
2023/03/09 10:14:03;;;;;;;13.77;8.73;;;3.30;99.90;;;;;;5088856;28;20060;-68
2023/03/09 10:16:40;;;;;;;15.32;7.85;;;3.30;99.90;;;;;;5094883;28;20447;-68
2023/03/09 10:19:15;;;;;;;14.73;8.30;;;3.30;99.90;;;;;;5071666;28;20123;-68
2023/03/09 10:21:51;;;;;;;12.52;7.65;;;3.40;99.90;;;;;;5091377;28;20368;-68
2023/03/09 10:24:29;;;;;;;15.48;8.32;;;3.40;99.90;;;;;;5088349;28;20040;-68
2023/03/09 10:27:01;;;;;;;16.00;8.55;;;3.40;99.90;;;;;;5083033;28;20118;-68
2023/03/09 10:29:55;;;;;;;13.52;8.35;;;3.50;99.90;;;;;;5069596;28;20071;-68
2023/03/09 10:32:44;;;;;;;12.48;7.53;;;3.50;99.90;;;;;;5105836;28;20548;-68
2023/03/09 10:35:24;;;;;;;14.55;8.65;;;3.50;99.90;;;;;;5066772;28;20040;-68
2023/03/09 10:37:51;;;;;;;14.05;7.97;;;3.40;99.90;;;;;;5126612;27;20048;-68
2023/03/09 10:40:21;;;;;;;15.25;8.68;;;3.50;99.90;;;;;;5105736;28;20399;-68
2023/03/09 10:42:47;;;;;;;14.80;8.65;;;3.50;99.90;;;;;;5125824;27;20039;-68
2023/03/09 10:45:24;;;;;;;13.45;8.27;;;3.70;99.90;;;;;;5073593;28;20033;-68
2023/03/09 10:47:50;;;;;;;13.45;8.85;;;3.60;99.90;;;;;;5068952;28;20119;-68
2023/03/09 10:50:16;;;;;;;15.20;8.73;;;3.50;99.90;;;;;;5082530;28;20051;-68
2023/03/09 10:52:42;;;;;;;13.43;8.00;;;3.60;99.90;;;;;;5075701;28;20032;-68
2023/03/09 10:55:26;;;;;;;12.85;8.10;;;3.60;99.90;;;;;;5102167;28;20401;-68
2023/03/09 10:58:13;;;;;;;12.55;7.43;;;3.70;99.90;;;;;;5091230;28;20036;-68
2023/03/09 11:01:17;;;;;;;13.10;7.82;;;3.80;99.90;;;;;;5055950;28;20079;-68
2023/03/09 11:03:43;;;;;;;11.93;6.88;;;3.70;99.90;;;;;;5075263;28;20518;-68
2023/03/09 11:06:29;;;;;;;12.02;7.38;;;3.80;99.90;;;;;;5090563;28;20039;-68
2023/03/09 11:09:14;;;;;;;12.10;7.22;;;3.80;99.90;;;;;;5088207;28;20057;-68
2023/03/09 11:11:41;;;;;;;12.57;7.68;;;3.80;99.90;;;;;;5091135;28;20131;-68
2023/03/09 11:14:21;;;;;;;13.07;7.28;;;3.80;99.90;;;;;;5091635;28;20442;-68
2023/03/09 11:16:52;;;;;;;13.25;8.07;;;3.90;99.90;;;;;;5090844;28;20128;-68
2023/03/09 11:19:19;;;;;;;12.40;6.93;;;3.90;99.90;;;;;;5080580;28;20442;-68
2023/03/09 11:21:56;;;;;;;12.73;7.78;;;3.90;99.90;;;;;;5065006;28;20115;-68
2023/03/09 11:24:39;;;;;;;13.20;7.88;;;3.90;99.90;;;;;;5074252;28;20039;-68
2023/03/09 11:27:16;;;;;;;13.05;7.88;;;4.00;99.90;;;;;;5067590;28;20089;-68
2023/03/09 11:29:58;;;;;;;15.05;7.95;;;4.00;99.90;;;;;;5074349;28;20036;-68
2023/03/09 11:32:23;;;;;;;14.13;7.70;;;4.10;99.90;;;;;;5083921;28;20400;-68
2023/03/09 11:34:50;;;;;;;13.75;7.95;;;4.20;99.90;;;;;;5074026;28;20297;-68
2023/03/09 11:37:21;;;;;;;15.90;9.05;;;4.20;99.90;;;;;;5074450;28;20044;-68
2023/03/09 11:40:01;;;;;;;13.82;8.32;;;4.00;99.90;;;;;;5074714;28;20500;-68
2023/03/09 11:42:40;;;;;;;13.18;8.15;;;4.00;99.90;;;;;;5093726;28;20032;-68
2023/03/09 11:45:14;;;;;;;14.43;8.43;;;4.10;99.90;;;;;;5091381;28;20556;-68
2023/03/09 11:47:44;;;;;;;14.73;9.20;;;4.10;99.90;;;;;;5090744;28;20413;-68
2023/03/09 11:50:20;;;;;;;13.60;8.15;;;4.00;99.90;;;;;;5098227;28;20044;-68
2023/03/09 11:53:28;;;;;;;12.82;8.35;;;4.00;99.90;;;;;;5079418;28;20304;-68
2023/03/09 11:55:59;;;;;;;14.73;8.70;;;4.00;99.90;;;;;;5085909;28;20063;-68
2023/03/09 11:58:35;;;;;;;15.52;9.80;;;4.00;99.90;;;;;;5099028;28;20045;-68
2023/03/09 12:01:27;;;;;;;14.65;8.68;;;4.00;99.90;;;;;;5114395;28;20048;-68
2023/03/09 12:03:59;;;;;;;14.52;8.77;;;4.00;99.90;;;;;;5065342;28;20047;-69
2023/03/09 12:06:43;;;;;;;15.68;9.52;;;4.00;99.90;;;;;;5071139;28;20044;-68
2023/03/09 12:09:31;;;;;;;13.93;8.75;;;4.00;99.90;;;;;;5101916;28;20040;-68
2023/03/09 12:12:25;;;;;;;14.32;8.52;;;3.90;99.90;;;;;;5076402;28;20036;-68
2023/03/09 12:14:56;;;;;;;13.98;8.75;;;3.90;99.90;;;;;;5092420;28;20043;-68
2023/03/09 12:17:29;;;;;;;13.70;8.50;;;3.90;99.90;;;;;;5106991;28;20094;-68
2023/03/09 12:19:55;;;;;;;15.88;10.55;;;4.00;99.90;;;;;;5119677;27;20138;-68
2023/03/09 12:22:37;;;;;;;15.95;9.02;;;3.90;99.90;;;;;;5095170;28;20044;-68
2023/03/09 12:25:06;;;;;;;16.33;8.85;;;3.90;99.90;;;;;;5074745;28;20088;-68
2023/03/09 12:27:34;;;;;;;16.55;9.45;;;4.00;99.90;;;;;;5087714;28;20081;-68
2023/03/09 12:30:00;;;;;;;13.73;8.48;;;3.90;99.90;;;;;;5065537;28;20480;-68
2023/03/09 12:32:25;;;;;;;15.43;9.93;;;4.00;99.90;;;;;;5083537;28;20044;-68
2023/03/09 12:34:53;;;;;;;14.63;9.02;;;3.90;99.90;;;;;;5077785;28;20036;-68
2023/03/09 12:37:31;;;;;;;13.35;8.48;;;4.00;99.90;;;;;;5094643;28;20089;-68
2023/03/09 12:40:15;;;;;;;14.18;8.90;;;4.00;99.90;;;;;;5091031;28;20048;-68
2023/03/09 12:42:41;;;;;;;15.85;8.10;;;4.10;99.90;;;;;;5095919;28;20043;-68
2023/03/09 12:45:10;;;;;;;13.07;8.00;;;4.20;99.90;;;;;;5088411;28;20032;-68
2023/03/09 12:47:47;;;;;;;16.17;9.70;;;4.30;99.90;;;;;;5093642;28;20036;-69
2023/03/09 12:50:40;;;;;;;16.50;9.98;;;4.30;99.90;;;;;;5111461;27;20135;-68
2023/03/09 12:53:13;;;;;;;17.17;10.80;;;4.20;99.90;;;;;;5075745;28;20033;-68